Flight Track Log - Related Links

Times and Time Zones

All times are in EDT time to prevent confusion due to time zone crossing. See the PDT4147 flight status page for this flight to view local times or setup timezone preferences in your user account.

Time Position Orientation Groundspeed Altitude Reporting Facility
EDT Latitude Longitude Course Direction KTS MPH feet Rate Location/Type
Sun 03:17:46 PM 35.2369 -80.9392 71° East 165 190 1,400  Level Atlanta Center
Sun 03:18:42 PM 35.2481 -80.8903 74° East 184 212 2,600 1,590 Climbing Atlanta Center
Sun 03:19:43 PM 35.2442 -80.8244 94° East 194 223 4,500 1,791 Climbing Atlanta Center
Sun 03:20:00 PM 35.3208 -80.5521 71° East  Level FlightAware Approximate
Sun 03:20:56 PM 35.2297 -80.7511 104° East 187 215 6,600  Level Atlanta Center
Sun 03:21:00 PM 35.3577 -80.4210 71° East  Level FlightAware Approximate
Sun 03:21:50 PM 35.2178 -80.6931 104° East 188 216 8,200  Level Atlanta Center
Sun 03:22:00 PM 35.3944 -80.2897 71° East  Level FlightAware Approximate
Sun 03:22:57 PM 35.1992 -80.6203 107° East 216 249 8,900  Level Atlanta Center
Sun 03:23:00 PM 35.4310 -80.1583 71° East  Level FlightAware Approximate
Sun 03:23:46 PM 35.2033 -80.5489 86° East 263 303 9,000  Level Atlanta Center
Sun 03:24:53 PM 35.2453 -80.4811 53° Northeast 226 260 10,500 938 Climbing Atlanta Center
Sun 03:25:54 PM 35.2808 -80.4158 56° Northeast 230 265 11,000 246 Climbing Atlanta Center
Sun 03:26:55 PM 35.3244 -80.3375 56° Northeast 272 313 11,000  Level Atlanta Center
Sun 03:28:00 PM 35.3652 -80.2675 54° Northeast  Level FlightAware Approximate
Sun 03:35:00 PM 35.7486 -80.0761 North  Level FlightAware Approximate
Sun 03:36:00 PM 35.8132 -80.0710 North  Level FlightAware Approximate
Sun 03:37:00 PM 35.8778 -80.0658 North  Level FlightAware Approximate
Sun 03:38:00 PM 35.9424 -80.0606 North  Level FlightAware Approximate
Sun 03:39:00 PM 36.0070 -80.0554 North  Level FlightAware Approximate
Sun 03:40:00 PM 36.0716 -80.0501 North  Level FlightAware Approximate
Sun 03:41:00 PM 36.1362 -80.0449 North  Level FlightAware Approximate
Sun 03:42:00 PM 36.2008 -80.0397 North  Level FlightAware Approximate
Sun 03:43:00 PM 36.2654 -80.0344 North  Level FlightAware Approximate
Sun 03:44:00 PM 36.3300 -80.0292 North  Level FlightAware Approximate
Sun 03:45:00 PM 36.3946 -80.0239 North  Level FlightAware Approximate
Sun 03:46:00 PM 36.4592 -80.0186 North  Level FlightAware Approximate
Sun 03:47:00 PM 36.5238 -80.0167 North  Level FlightAware Approximate
Sun 03:48:00 PM 36.5886 -80.0167 North  Level FlightAware Approximate
Sun 03:49:00 PM 36.6533 -80.0167 North  Level FlightAware Approximate
Sun 03:50:00 PM 36.7190 -80.0155 22° Northeast  Level FlightAware Approximate
Sun 03:51:00 PM 36.7824 -80.0000 North  Level FlightAware Approximate
Sun 03:52:00 PM 36.8482 -80.0000 North  Level FlightAware Approximate
Sun 03:53:00 PM 36.9141 -80.0000 North  Level FlightAware Approximate
Sun 03:54:00 PM 36.9783 -79.9850 15° North  Level FlightAware Approximate
Sun 03:55:00 PM 37.0440 -79.9833 North  Level FlightAware Approximate
Sun 03:56:00 PM 37.1098 -79.9833 North  Level FlightAware Approximate
Sun 03:57:00 PM 37.1756 -79.9833 360° North  Level FlightAware Approximate
Sun 03:58:00 PM 37.2407 -79.9719 North  Level FlightAware Approximate
Sun 03:59:00 PM 37.3062 -79.9667 North  Level FlightAware Approximate

Login

Don't have an account? Register now (free) for customized features, flight alerts, and more!